Aérodrome :
LOGIN :

S'inscrire | Disclaimer

   EN    FR    IT 

 










Légende :    VFR   VFR Marginal   IFR   IFR Intensif   IFR Très Intensif
Visi : 
Plafond : 
>= 8 km
>= 3000ft
5 à 8 km
1000 à 3000 ft
1500m à 5 km
500 à 1000 ft
800 à 1500m
200 à 500 ft
< 800m
< 200 ft
Symboles :   Orages  Brouillard  Fortes neiges  Fortes précipitations  Vent > 20 kt
SIGMETs :   Divers  Orages  Givrage  Turbulence  Onde Orograph.  Cendres Volcan.






- Altitude de l'aérodrome : 16 ft
- Code IATA : LPX


EVLA - Liepaja

DERNIER METAR :
  • 222020Z AUTO 24025KT 9999 BKN100/// BKN130/// 06/03 Q0993

METARs EXPIRÉS :
  • 221950Z AUTO 24025KT 9999 FEW099/// BKN130/// 05/03 Q0993
  • 221920Z AUTO 24026KT 9999 FEW094/// BKN140/// 06/03 Q0993
  • 221850Z AUTO 24024KT 9999 FEW022/// BKN120/// 05/03 Q0993
  • 221820Z AUTO 25027KT 9999 OVC026/// 05/03 Q0993
  • 221750Z AUTO 25029KT 9999 -RA FEW015/// BKN020/// BKN046/// 06/04 Q0993

TAF TAF EVLA
Valide du 22 à 21h jusqu'au 23 à 21h UTC


222001Z 2221/2321 24022G32KT 9999 BKN015
TEMPO 2221/2306 24025G40KT SCT015CB BKN020
BECMG 2314/2316 24015G26KT



MET'MAP, la Météo Aéronautique d'un coup d'oeil ! - Copyright ORBIFLY Décembre 2007 - Disclaimer

ORBIFLY MET'MAP TEAM :

Programmation & Développement : Alexandra Zaïnal
Sur une idée originale de : Baudouin d'Aumeries
Assistance à la programmation : Marc-Olivier Méhu
Soutien technique & logistique : Manuel Goepfert

Contact : metmap@orbifly.com




SOURCES & CREDITS :

   NOAA